Time,TemperatureF,DewpointF,PressureIn,WindDirection,WindDirectionDegrees,WindSpeedMPH,WindSpeedGustMPH,Humidity,HourlyPrecipIn,Conditions,Clouds,dailyrainin,SoftwareType,DateUTC
2013-04-10 00:05:00,43.9,42.0,30.27,North,355,0.0,3.0,93,0.00,,,0.00,Wunderground v.1.15,2013-04-10 07:05:00,
2013-04-10 00:10:00,43.8,41.9,30.27,North,355,0.0,0.0,93,0.00,,,0.00,Wunderground v.1.15,2013-04-10 07:10:00,
2013-04-10 00:16:00,43.8,41.9,30.27,North,355,0.0,0.0,93,0.00,,,0.00,Wunderground v.1.15,2013-04-10 07:16:00,
2013-04-10 00:21:00,43.6,41.7,30.27,North,355,0.0,0.0,93,0.00,,,0.00,Wunderground v.1.15,2013-04-10 07:21:00,
2013-04-10 00:28:00,43.4,41.5,30.26,North,355,0.0,0.0,93,0.00,,,0.00,Wunderground v.1.15,2013-04-10 07:28:00,
2013-04-10 00:33:00,43.3,41.4,30.27,North,355,0.0,0.0,93,0.00,,,0.00,Wunderground v.1.15,2013-04-10 07:33:00,
2013-04-10 00:38:00,43.1,41.2,30.27,North,355,0.0,0.0,93,0.00,,,0.00,Wunderground v.1.15,2013-04-10 07:38:00,
2013-04-10 00:44:00,43.0,41.1,30.27,North,355,0.0,0.0,93,0.00,,,0.00,Wunderground v.1.15,2013-04-10 07:44:00,
2013-04-10 00:50:00,43.0,41.1,30.27,North,355,0.0,0.0,93,0.00,,,0.00,Wunderground v.1.15,2013-04-10 07:50:00,
2013-04-10 00:55:00,43.0,41.1,30.27,North,355,0.0,0.0,93,0.00,,,0.00,Wunderground v.1.15,2013-04-10 07:55:00,
2013-04-10 01:00:00,42.9,41.0,30.27,North,355,0.0,1.0,93,0.00,,,0.00,Wunderground v.1.15,2013-04-10 08:00:00,
2013-04-10 01:05:00,42.9,41.0,30.27,North,355,0.0,1.0,93,0.00,,,0.00,Wunderground v.1.15,2013-04-10 08:05:00,
2013-04-10 01:10:00,43.0,41.4,30.27,North,355,0.0,1.0,94,0.00,,,0.00,Wunderground v.1.15,2013-04-10 08:10:00,
2013-04-10 01:15:00,43.1,41.2,30.27,North,355,0.0,1.0,93,0.00,,,0.00,Wunderground v.1.15,2013-04-10 08:15:00,
2013-04-10 01:21:00,43.1,41.2,30.27,North,355,0.0,2.0,93,0.00,,,0.00,Wunderground v.1.15,2013-04-10 08:21:00,
2013-04-10 01:28:00,42.8,40.9,30.27,North,355,1.0,2.0,93,0.00,,,0.00,Wunderground v.1.15,2013-04-10 08:28:00,
2013-04-10 01:33:00,42.5,40.6,30.27,North,355,2.0,2.0,93,0.00,,,0.00,Wunderground v.1.15,2013-04-10 08:33:00,
2013-04-10 01:40:00,42.2,40.3,30.27,North,355,1.0,1.0,93,0.00,,,0.00,Wunderground v.1.15,2013-04-10 08:40:00,
2013-04-10 01:45:00,42.1,40.2,30.27,North,355,2.0,3.0,93,0.00,,,0.00,Wunderground v.1.15,2013-04-10 08:45:00,
2013-04-10 01:50:00,42.1,40.2,30.27,North,355,2.0,3.0,93,0.00,,,0.00,Wunderground v.1.15,2013-04-10 08:50:00,
2013-04-10 01:56:00,42.1,40.5,30.28,North,355,3.0,3.0,94,0.00,,,0.00,Wunderground v.1.15,2013-04-10 08:56:00,
2013-04-10 02:01:00,42.5,40.9,30.28,North,355,3.0,3.0,94,0.00,,,0.00,Wunderground v.1.15,2013-04-10 09:01:00,
2013-04-10 02:07:00,42.7,41.1,30.28,North,355,3.0,4.0,94,0.00,,,0.00,Wunderground v.1.15,2013-04-10 09:07:00,
2013-04-10 02:13:00,42.6,41.0,30.28,North,355,2.0,3.0,94,0.00,,,0.00,Wunderground v.1.15,2013-04-10 09:13:00,
2013-04-10 02:18:00,42.7,41.1,30.27,North,355,2.0,4.0,94,0.00,,,0.00,Wunderground v.1.15,2013-04-10 09:18:00,
2013-04-10 02:24:00,42.7,41.1,30.27,North,355,2.0,2.0,94,0.00,,,0.00,Wunderground v.1.15,2013-04-10 09:24:00,
2013-04-10 02:29:00,42.6,41.0,30.27,North,355,2.0,3.0,94,0.00,,,0.00,Wunderground v.1.15,2013-04-10 09:29:00,
2013-04-10 02:34:00,42.6,41.0,30.27,North,355,3.0,5.0,94,0.00,,,0.00,Wunderground v.1.15,2013-04-10 09:34:00,
2013-04-10 02:40:00,42.6,41.0,30.28,North,355,4.0,5.0,94,0.00,,,0.00,Wunderground v.1.15,2013-04-10 09:40:00,
2013-04-10 02:45:00,42.7,41.1,30.27,North,355,4.0,5.0,94,0.00,,,0.00,Wunderground v.1.15,2013-04-10 09:45:00,
2013-04-10 02:50:00,42.7,41.1,30.27,ENE,61,3.0,4.0,94,0.00,,,0.00,Wunderground v.1.15,2013-04-10 09:50:00,
2013-04-10 02:55:00,42.8,41.2,30.27,ESE,115,3.0,6.0,94,0.00,,,0.00,Wunderground v.1.15,2013-04-10 09:55:00,
2013-04-10 03:01:00,42.8,41.2,30.27,ESE,116,3.0,5.0,94,0.00,,,0.00,Wunderground v.1.15,2013-04-10 10:01:00,
2013-04-10 03:06:00,42.7,41.1,30.27,ESE,117,3.0,5.0,94,0.00,,,0.00,Wunderground v.1.15,2013-04-10 10:06:00,
2013-04-10 03:13:00,42.7,41.1,30.27,ESE,117,3.0,4.0,94,0.00,,,0.00,Wunderground v.1.15,2013-04-10 10:13:00,
2013-04-10 03:18:00,42.9,41.3,30.27,ESE,117,3.0,4.0,94,0.00,,,0.00,Wunderground v.1.15,2013-04-10 10:18:00,
2013-04-10 03:23:00,43.2,41.9,30.27,ESE,117,3.0,4.0,95,0.00,,,0.00,Wunderground v.1.15,2013-04-10 10:23:00,
2013-04-10 03:28:00,43.6,42.3,30.27,ESE,117,3.0,5.0,95,0.00,,,0.00,Wunderground v.1.15,2013-04-10 10:28:00,
2013-04-10 03:33:00,44.4,43.1,30.27,SE,126,3.0,7.0,95,0.00,,,0.00,Wunderground v.1.15,2013-04-10 10:33:00,
2013-04-10 03:38:00,44.7,43.4,30.27,SE,126,3.0,7.0,95,0.00,,,0.00,Wunderground v.1.15,2013-04-10 10:38:00,
2013-04-10 03:44:00,44.9,43.6,30.28,SE,126,3.0,4.0,95,0.00,,,0.00,Wunderground v.1.15,2013-04-10 10:44:00,
2013-04-10 03:49:00,44.9,43.6,30.27,SE,126,3.0,3.0,95,0.00,,,0.00,Wunderground v.1.15,2013-04-10 10:49:00,
2013-04-10 03:54:00,44.8,43.5,30.28,SE,126,2.0,3.0,95,0.00,,,0.00,Wunderground v.1.15,2013-04-10 10:54:00,
2013-04-10 03:59:00,44.7,43.4,30.28,SE,126,2.0,3.0,95,0.00,,,0.00,Wunderground v.1.15,2013-04-10 10:59:00,
2013-04-10 04:06:00,44.9,43.6,30.28,SE,126,3.0,4.0,95,0.00,,,0.00,Wunderground v.1.15,2013-04-10 11:06:00,
2013-04-10 04:11:00,45.0,43.7,30.28,SE,126,3.0,4.0,95,0.00,,,0.00,Wunderground v.1.15,2013-04-10 11:11:00,
2013-04-10 04:18:00,45.0,43.7,30.28,SE,126,3.0,5.0,95,0.00,,,0.00,Wunderground v.1.15,2013-04-10 11:18:00,
2013-04-10 04:23:00,44.9,43.6,30.28,SE,126,3.0,4.0,95,0.00,,,0.00,Wunderground v.1.15,2013-04-10 11:23:00,
2013-04-10 04:28:00,44.9,43.8,30.28,SE,126,3.0,5.0,96,0.00,,,0.00,Wunderground v.1.15,2013-04-10 11:28:00,
2013-04-10 04:33:00,44.8,43.7,30.28,SSE,153,4.0,4.0,96,0.00,,,0.00,Wunderground v.1.15,2013-04-10 11:33:00,
2013-04-10 04:39:00,44.6,43.3,30.28,SSE,153,4.0,4.0,95,0.00,,,0.00,Wunderground v.1.15,2013-04-10 11:39:00,
2013-04-10 04:44:00,44.4,43.1,30.28,SSE,153,3.0,5.0,95,0.00,,,0.00,Wunderground v.1.15,2013-04-10 11:44:00,
2013-04-10 04:50:00,44.1,43.0,30.28,SSE,154,4.0,5.0,96,0.00,,,0.00,Wunderground v.1.15,2013-04-10 11:50:00,
2013-04-10 04:55:00,44.0,42.9,30.28,SSE,154,3.0,5.0,96,0.00,,,0.00,Wunderground v.1.15,2013-04-10 11:55:00,
2013-04-10 05:00:00,44.0,42.9,30.27,SSE,153,4.0,4.0,96,0.00,,,0.00,Wunderground v.1.15,2013-04-10 12:00:00,
2013-04-10 05:07:00,44.0,42.9,30.27,SSE,153,4.0,6.0,96,0.00,,,0.00,Wunderground v.1.15,2013-04-10 12:07:00,
2013-04-10 05:12:00,44.0,42.9,30.27,SSE,153,4.0,5.0,96,0.00,,,0.00,Wunderground v.1.15,2013-04-10 12:12:00,
2013-04-10 05:18:00,44.2,43.1,30.28,SSE,153,3.0,5.0,96,0.00,,,0.00,Wunderground v.1.15,2013-04-10 12:18:00,
2013-04-10 05:23:00,44.5,43.4,30.27,SSE,153,3.0,3.0,96,0.00,,,0.00,Wunderground v.1.15,2013-04-10 12:23:00,
2013-04-10 05:29:00,44.8,44.0,30.27,SSE,153,3.0,3.0,97,0.00,,,0.00,Wunderground v.1.15,2013-04-10 12:29:00,
2013-04-10 05:35:00,44.9,43.8,30.27,SSE,153,3.0,4.0,96,0.00,,,0.00,Wunderground v.1.15,2013-04-10 12:35:00,
2013-04-10 05:40:00,45.1,44.0,30.28,SSE,153,3.0,4.0,96,0.00,,,0.00,Wunderground v.1.15,2013-04-10 12:40:00,
2013-04-10 05:45:00,45.2,44.4,30.28,SSE,153,3.0,4.0,97,0.00,,,0.00,Wunderground v.1.15,2013-04-10 12:45:00,
2013-04-10 05:51:00,45.3,44.5,30.28,SSE,153,3.0,5.0,97,0.00,,,0.00,Wunderground v.1.15,2013-04-10 12:51:00,
2013-04-10 05:56:00,45.4,44.6,30.28,SSE,153,3.0,5.0,97,0.00,,,0.00,Wunderground v.1.15,2013-04-10 12:56:00,
2013-04-10 06:01:00,45.5,44.7,30.28,SSE,153,3.0,6.0,97,0.00,,,0.00,Wunderground v.1.15,2013-04-10 13:01:00,
2013-04-10 06:06:00,45.6,44.8,30.28,SSE,153,4.0,6.0,97,0.00,,,0.01,Wunderground v.1.15,2013-04-10 13:06:00,
2013-04-10 06:13:00,45.7,44.9,30.28,SSE,153,4.0,5.0,97,0.00,,,0.01,Wunderground v.1.15,2013-04-10 13:13:00,
2013-04-10 06:18:00,45.8,45.0,30.27,SSE,164,4.0,7.0,97,0.00,,,0.01,Wunderground v.1.15,2013-04-10 13:18:00,
2013-04-10 06:23:00,45.9,45.1,30.27,SSE,165,4.0,4.0,97,0.00,,,0.01,Wunderground v.1.15,2013-04-10 13:23:00,
2013-04-10 06:29:00,46.1,45.3,30.28,SSE,165,4.0,6.0,97,0.00,,,0.01,Wunderground v.1.15,2013-04-10 13:29:00,
2013-04-10 06:35:00,46.2,45.4,30.28,SSE,165,5.0,7.0,97,0.00,,,0.01,Wunderground v.1.15,2013-04-10 13:35:00,
2013-04-10 06:41:00,46.2,45.4,30.29,SSE,165,4.0,6.0,97,0.00,,,0.01,Wunderground v.1.15,2013-04-10 13:41:00,
2013-04-10 06:47:00,46.3,45.5,30.28,SSE,165,4.0,6.0,97,0.00,,,0.01,Wunderground v.1.15,2013-04-10 13:47:00,
2013-04-10 06:53:00,46.3,45.5,30.28,SSE,165,4.0,6.0,97,0.00,,,0.01,Wunderground v.1.15,2013-04-10 13:53:00,
2013-04-10 06:59:00,46.2,45.4,30.28,SSE,167,4.0,6.0,97,0.00,,,0.01,Wunderground v.1.15,2013-04-10 13:59:00,
2013-04-10 07:04:00,46.3,45.5,30.28,South,171,4.0,6.0,97,0.00,,,0.01,Wunderground v.1.15,2013-04-10 14:04:00,
2013-04-10 07:10:00,46.4,45.6,30.28,South,171,4.0,6.0,97,0.00,,,0.01,Wunderground v.1.15,2013-04-10 14:10:00,
2013-04-10 07:14:00,46.5,45.7,30.28,SSE,166,5.0,7.0,97,0.00,,,0.01,Wunderground v.1.15,2013-04-10 14:14:00,
2013-04-10 07:20:00,46.7,45.9,30.27,SSE,162,5.0,6.0,97,0.00,,,0.01,Wunderground v.1.15,2013-04-10 14:20:00,
2013-04-10 07:26:00,46.7,45.9,30.27,SSE,159,5.0,8.0,97,0.00,,,0.01,Wunderground v.1.15,2013-04-10 14:26:00,
2013-04-10 07:33:00,46.8,46.0,30.27,SSE,159,5.0,7.0,97,0.00,,,0.01,Wunderground v.1.15,2013-04-10 14:33:00,
2013-04-10 07:38:00,46.8,46.0,30.28,SSE,159,5.0,7.0,97,0.00,,,0.01,Wunderground v.1.15,2013-04-10 14:38:00,
2013-04-10 07:43:00,46.9,46.4,30.28,SSE,160,5.0,5.0,98,0.00,,,0.01,Wunderground v.1.15,2013-04-10 14:43:00,
2013-04-10 07:49:00,47.0,46.5,30.28,SSE,153,4.0,7.0,98,0.00,,,0.01,Wunderground v.1.15,2013-04-10 14:49:00,
2013-04-10 07:55:00,47.2,46.4,30.28,SSE,161,5.0,8.0,97,0.00,,,0.01,Wunderground v.1.15,2013-04-10 14:55:00,
2013-04-10 08:00:00,47.4,46.9,30.28,SSE,159,5.0,6.0,98,0.00,,,0.01,Wunderground v.1.15,2013-04-10 15:00:00,
2013-04-10 08:06:00,47.6,47.1,30.28,SSE,162,5.0,7.0,98,0.00,,,0.01,Wunderground v.1.15,2013-04-10 15:06:00,
2013-04-10 08:13:00,47.7,47.2,30.28,SSE,163,5.0,5.0,98,0.00,,,0.01,Wunderground v.1.15,2013-04-10 15:13:00,
2013-04-10 08:18:00,47.9,47.4,30.29,SSE,163,5.0,7.0,98,0.00,,,0.01,Wunderground v.1.15,2013-04-10 15:18:00,
2013-04-10 08:24:00,48.1,47.6,30.29,SSE,163,5.0,6.0,98,0.00,,,0.01,Wunderground v.1.15,2013-04-10 15:24:00,
2013-04-10 08:29:00,48.1,47.6,30.29,SSE,163,5.0,7.0,98,0.00,,,0.01,Wunderground v.1.15,2013-04-10 15:29:00,
2013-04-10 08:35:00,48.2,47.7,30.28,SSE,165,5.0,7.0,98,0.00,,,0.01,Wunderground v.1.15,2013-04-10 15:35:00,
2013-04-10 08:41:00,48.3,47.8,30.29,SSE,165,4.0,6.0,98,0.00,,,0.01,Wunderground v.1.15,2013-04-10 15:41:00,
2013-04-10 08:46:00,48.4,47.9,30.29,SSE,167,5.0,7.0,98,0.00,,,0.01,Wunderground v.1.15,2013-04-10 15:46:00,
2013-04-10 08:51:00,48.6,48.1,30.30,South,187,5.0,8.0,98,0.00,,,0.01,Wunderground v.1.15,2013-04-10 15:51:00,
2013-04-10 08:56:00,48.6,48.1,30.29,South,186,5.0,8.0,98,0.00,,,0.01,Wunderground v.1.15,2013-04-10 15:56:00,
2013-04-10 09:03:00,48.7,48.2,30.29,SSW,192,5.0,6.0,98,0.00,,,0.01,Wunderground v.1.15,2013-04-10 16:03:00,
2013-04-10 09:08:00,48.8,48.3,30.28,South,180,6.0,8.0,98,0.00,,,0.01,Wunderground v.1.15,2013-04-10 16:08:00,
2013-04-10 09:15:00,48.8,48.3,30.28,South,187,7.0,9.0,98,0.00,,,0.01,Wunderground v.1.15,2013-04-10 16:15:00,
2013-04-10 09:20:00,48.9,48.4,30.28,South,173,7.0,7.0,98,0.00,,,0.01,Wunderground v.1.15,2013-04-10 16:20:00,
2013-04-10 09:27:00,49.2,48.7,30.28,South,186,7.0,8.0,98,0.00,,,0.01,Wunderground v.1.15,2013-04-10 16:27:00,
2013-04-10 09:33:00,49.1,48.6,30.28,South,191,7.0,9.0,98,0.00,,,0.01,Wunderground v.1.15,2013-04-10 16:33:00,
2013-04-10 09:39:00,49.3,48.8,30.28,South,188,8.0,8.0,98,0.00,,,0.01,Wunderground v.1.15,2013-04-10 16:39:00,
2013-04-10 09:45:00,49.4,48.9,30.28,SSW,198,8.0,8.0,98,0.00,,,0.01,Wunderground v.1.15,2013-04-10 16:45:00,
2013-04-10 09:50:00,49.4,48.9,30.28,South,180,7.0,8.0,98,0.00,,,0.01,Wunderground v.1.15,2013-04-10 16:50:00,
2013-04-10 09:55:00,49.5,48.7,30.28,South,175,8.0,9.0,97,0.00,,,0.01,Wunderground v.1.15,2013-04-10 16:55:00,
2013-04-10 10:00:00,49.6,48.8,30.28,South,188,8.0,8.0,97,0.00,,,0.01,Wunderground v.1.15,2013-04-10 17:00:00,
2013-04-10 10:06:00,49.6,48.8,30.28,South,186,8.0,12.0,97,0.00,,,0.01,Wunderground v.1.15,2013-04-10 17:06:00,
2013-04-10 10:12:00,49.7,48.9,30.28,South,185,9.0,12.0,97,0.00,,,0.02,Wunderground v.1.15,2013-04-10 17:12:00,
2013-04-10 10:18:00,49.6,48.8,30.28,South,191,9.0,13.0,97,0.00,,,0.02,Wunderground v.1.15,2013-04-10 17:18:00,
2013-04-10 10:23:00,49.7,48.9,30.28,SSW,196,9.0,9.0,97,0.00,,,0.02,Wunderground v.1.15,2013-04-10 17:23:00,
2013-04-10 10:28:00,49.7,48.9,30.28,South,186,9.0,13.0,97,0.00,,,0.02,Wunderground v.1.15,2013-04-10 17:28:00,
2013-04-10 10:34:00,49.6,48.8,30.28,South,173,9.0,15.0,97,0.00,,,0.02,Wunderground v.1.15,2013-04-10 17:34:00,
2013-04-10 10:39:00,49.5,48.7,30.29,SSW,192,9.0,9.0,97,0.00,,,0.02,Wunderground v.1.15,2013-04-10 17:39:00,
2013-04-10 10:45:00,49.5,48.7,30.28,SSW,194,8.0,10.0,97,0.00,,,0.02,Wunderground v.1.15,2013-04-10 17:45:00,
2013-04-10 10:50:00,49.5,48.7,30.28,SSW,194,8.0,8.0,97,0.00,,,0.02,Wunderground v.1.15,2013-04-10 17:50:00,
2013-04-10 10:56:00,49.7,48.9,30.28,SSW,206,7.0,8.0,97,0.00,,,0.02,Wunderground v.1.15,2013-04-10 17:56:00,
2013-04-10 11:01:00,49.5,48.7,30.29,SSW,202,8.0,8.0,97,0.00,,,0.02,Wunderground v.1.15,2013-04-10 18:01:00,
2013-04-10 11:06:00,49.4,48.6,30.29,SSW,209,8.0,8.0,97,0.00,,,0.02,Wunderground v.1.15,2013-04-10 18:06:00,
2013-04-10 11:13:00,49.4,48.6,30.29,SSW,205,7.0,11.0,97,0.00,,,0.02,Wunderground v.1.15,2013-04-10 18:13:00,
2013-04-10 11:18:00,49.5,48.7,30.29,SSW,198,7.0,11.0,97,0.00,,,0.02,Wunderground v.1.15,2013-04-10 18:18:00,
2013-04-10 11:24:00,49.5,48.7,30.29,SSW,203,7.0,8.0,97,0.00,,,0.02,Wunderground v.1.15,2013-04-10 18:24:00,
2013-04-10 11:29:00,49.4,48.6,30.29,SSW,205,7.0,7.0,97,0.00,,,0.02,Wunderground v.1.15,2013-04-10 18:29:00,
2013-04-10 11:34:00,49.4,48.6,30.29,SSW,195,7.0,12.0,97,0.00,,,0.02,Wunderground v.1.15,2013-04-10 18:34:00,
2013-04-10 11:39:00,49.4,48.9,30.29,SSW,208,8.0,10.0,98,0.00,,,0.02,Wunderground v.1.15,2013-04-10 18:39:00,
2013-04-10 11:45:00,49.4,48.9,30.30,SSW,204,8.0,10.0,98,0.00,,,0.02,Wunderground v.1.15,2013-04-10 18:45:00,
2013-04-10 11:52:00,49.3,48.8,30.30,SSW,202,7.0,10.0,98,0.00,,,0.02,Wunderground v.1.15,2013-04-10 18:52:00,
2013-04-10 11:58:00,49.2,48.4,30.30,SSW,200,8.0,12.0,97,0.00,,,0.02,Wunderground v.1.15,2013-04-10 18:58:00,
2013-04-10 12:03:00,49.2,48.7,30.30,SSW,213,8.0,9.0,98,0.00,,,0.02,Wunderground v.1.15,2013-04-10 19:03:00,
2013-04-10 12:09:00,49.0,48.2,30.30,SSW,207,7.0,10.0,97,0.00,,,0.02,Wunderground v.1.15,2013-04-10 19:09:00,
2013-04-10 12:14:00,49.0,48.5,30.30,SSW,198,8.0,10.0,98,0.00,,,0.02,Wunderground v.1.15,2013-04-10 19:14:00,
2013-04-10 12:20:00,49.1,48.6,30.30,SSW,198,9.0,9.0,98,0.00,,,0.02,Wunderground v.1.15,2013-04-10 19:20:00,
2013-04-10 12:25:00,49.0,48.5,30.30,SSW,211,8.0,9.0,98,0.00,,,0.02,Wunderground v.1.15,2013-04-10 19:25:00,
2013-04-10 12:31:00,49.0,48.5,30.31,SW,223,8.0,9.0,98,0.00,,,0.02,Wunderground v.1.15,2013-04-10 19:31:00,
2013-04-10 12:36:00,48.9,48.4,30.30,SSW,206,8.0,9.0,98,0.00,,,0.02,Wunderground v.1.15,2013-04-10 19:36:00,
2013-04-10 12:41:00,49.0,48.5,30.31,SSW,200,7.0,11.0,98,0.00,,,0.02,Wunderground v.1.15,2013-04-10 19:41:00,
2013-04-10 12:48:00,48.8,48.3,30.31,SSW,211,8.0,13.0,98,0.00,,,0.02,Wunderground v.1.15,2013-04-10 19:48:00,
2013-04-10 12:53:00,49.0,48.5,30.31,SSW,211,9.0,13.0,98,0.00,,,0.02,Wunderground v.1.15,2013-04-10 19:53:00,
2013-04-10 13:00:00,49.0,48.5,30.31,SSW,206,8.0,9.0,98,0.00,,,0.02,Wunderground v.1.15,2013-04-10 20:00:00,
2013-04-10 13:05:00,49.0,48.5,30.31,SSW,211,8.0,11.0,98,0.00,,,0.02,Wunderground v.1.15,2013-04-10 20:05:00,
2013-04-10 13:13:00,49.3,48.8,30.31,SSW,207,8.0,8.0,98,0.00,,,0.02,Wunderground v.1.15,2013-04-10 20:13:00,
2013-04-10 13:18:00,49.3,48.8,30.31,SSW,203,8.0,10.0,98,0.00,,,0.02,Wunderground v.1.15,2013-04-10 20:18:00,
2013-04-10 13:23:00,49.1,48.6,30.31,SSW,205,8.0,8.0,98,0.00,,,0.02,Wunderground v.1.15,2013-04-10 20:23:00,
2013-04-10 13:28:00,49.2,48.7,30.31,SSW,205,8.0,11.0,98,0.00,,,0.02,Wunderground v.1.15,2013-04-10 20:28:00,
2013-04-10 13:34:00,49.1,48.6,30.31,SSW,195,9.0,10.0,98,0.00,,,0.02,Wunderground v.1.15,2013-04-10 20:34:00,
2013-04-10 13:40:00,49.2,48.7,30.31,SSW,202,8.0,8.0,98,0.00,,,0.02,Wunderground v.1.15,2013-04-10 20:40:00,
2013-04-10 13:46:00,49.2,48.7,30.31,SSW,207,9.0,10.0,98,0.00,,,0.02,Wunderground v.1.15,2013-04-10 20:46:00,
2013-04-10 13:51:00,49.2,48.7,30.31,SSW,205,8.0,8.0,98,0.00,,,0.02,Wunderground v.1.15,2013-04-10 20:51:00,
2013-04-10 13:56:00,49.0,48.5,30.31,SSW,202,8.0,9.0,98,0.00,,,0.02,Wunderground v.1.15,2013-04-10 20:56:00,
2013-04-10 14:02:00,49.1,48.6,30.31,SW,229,8.0,12.0,98,0.00,,,0.02,Wunderground v.1.15,2013-04-10 21:02:00,
2013-04-10 14:08:00,48.8,48.3,30.31,SW,232,8.0,12.0,98,0.00,,,0.02,Wunderground v.1.15,2013-04-10 21:08:00,
2013-04-10 14:13:00,49.0,48.5,30.31,SW,222,7.0,8.0,98,0.00,,,0.02,Wunderground v.1.15,2013-04-10 21:13:00,
2013-04-10 14:18:00,49.2,48.9,30.31,SW,217,7.0,8.0,99,0.00,,,0.02,Wunderground v.1.15,2013-04-10 21:18:00,
2013-04-10 14:24:00,49.7,49.4,30.31,SW,217,5.0,6.0,99,0.00,,,0.02,Wunderground v.1.15,2013-04-10 21:24:00,
2013-04-10 14:30:00,49.5,49.0,30.31,SW,217,4.0,4.0,98,0.00,,,0.02,Wunderground v.1.15,2013-04-10 21:30:00,
2013-04-10 14:37:00,49.7,49.2,30.31,SW,217,4.0,6.0,98,0.00,,,0.02,Wunderground v.1.15,2013-04-10 21:37:00,
2013-04-10 14:43:00,49.8,49.3,30.31,SW,217,4.0,4.0,98,0.00,,,0.02,Wunderground v.1.15,2013-04-10 21:43:00,
2013-04-10 14:48:00,49.9,49.4,30.32,SW,217,4.0,5.0,98,0.00,,,0.02,Wunderground v.1.15,2013-04-10 21:48:00,
2013-04-10 14:54:00,50.0,49.5,30.32,SW,217,4.0,5.0,98,0.00,,,0.02,Wunderground v.1.15,2013-04-10 21:54:00,
2013-04-10 14:59:00,49.8,49.3,30.32,WSW,251,4.0,4.0,98,0.00,,,0.02,Wunderground v.1.15,2013-04-10 21:59:00,
2013-04-10 15:06:00,49.7,49.2,30.32,WNW,286,5.0,6.0,98,0.00,,,0.02,Wunderground v.1.15,2013-04-10 22:06:00,
2013-04-10 15:12:00,49.3,48.8,30.32,NW,318,5.0,7.0,98,0.00,,,0.02,Wunderground v.1.15,2013-04-10 22:12:00,
2013-04-10 15:18:00,49.4,48.9,30.33,NW,317,6.0,7.0,98,0.00,,,0.02,Wunderground v.1.15,2013-04-10 22:18:00,
2013-04-10 15:23:00,49.4,48.9,30.33,NW,317,5.0,7.0,98,0.00,,,0.02,Wunderground v.1.15,2013-04-10 22:23:00,
2013-04-10 15:28:00,49.4,48.9,30.32,NW,317,5.0,7.0,98,0.00,,,0.02,Wunderground v.1.15,2013-04-10 22:28:00,
2013-04-10 15:34:00,49.4,48.6,30.32,NW,321,4.0,5.0,97,0.00,,,0.02,Wunderground v.1.15,2013-04-10 22:34:00,
2013-04-10 15:39:00,49.5,48.7,30.32,NW,321,3.0,3.0,97,0.00,,,0.02,Wunderground v.1.15,2013-04-10 22:39:00,
2013-04-10 15:44:00,49.5,48.7,30.32,NW,321,4.0,5.0,97,0.00,,,0.02,Wunderground v.1.15,2013-04-10 22:44:00,
2013-04-10 15:49:00,49.3,48.5,30.32,NW,323,5.0,5.0,97,0.00,,,0.02,Wunderground v.1.15,2013-04-10 22:49:00,
2013-04-10 15:55:00,49.3,48.5,30.31,NW,325,5.0,6.0,97,0.00,,,0.02,Wunderground v.1.15,2013-04-10 22:55:00,
2013-04-10 16:01:00,49.5,48.7,30.31,NW,325,5.0,5.0,97,0.00,,,0.02,Wunderground v.1.15,2013-04-10 23:01:00,
2013-04-10 16:07:00,49.5,48.4,30.31,NW,325,5.0,5.0,96,0.00,,,0.02,Wunderground v.1.15,2013-04-10 23:07:00,
2013-04-10 16:12:00,49.6,48.5,30.31,NW,325,4.0,5.0,96,0.00,,,0.02,Wunderground v.1.15,2013-04-10 23:12:00,
2013-04-10 16:18:00,49.6,48.5,30.31,NW,325,4.0,5.0,96,0.00,,,0.02,Wunderground v.1.15,2013-04-10 23:18:00,
2013-04-10 16:23:00,49.5,48.4,30.31,NW,325,4.0,6.0,96,0.00,,,0.02,Wunderground v.1.15,2013-04-10 23:23:00,
2013-04-10 16:28:00,49.6,48.5,30.31,NW,325,4.0,6.0,96,0.00,,,0.02,Wunderground v.1.15,2013-04-10 23:28:00,
2013-04-10 16:33:00,50.0,48.9,30.31,NW,325,3.0,4.0,96,0.00,,,0.02,Wunderground v.1.15,2013-04-10 23:33:00,
2013-04-10 16:38:00,50.4,49.3,30.31,NW,325,3.0,4.0,96,0.00,,,0.02,Wunderground v.1.15,2013-04-10 23:38:00,
2013-04-10 16:43:00,50.6,49.5,30.31,NW,325,3.0,5.0,96,0.00,,,0.02,Wunderground v.1.15,2013-04-10 23:43:00,
2013-04-10 16:49:00,50.8,49.7,30.30,NW,325,3.0,3.0,96,0.00,,,0.02,Wunderground v.1.15,2013-04-10 23:49:00,
2013-04-10 16:54:00,50.6,49.2,30.30,NW,325,4.0,5.0,95,0.00,,,0.02,Wunderground v.1.15,2013-04-10 23:54:00,
2013-04-10 16:59:00,50.3,48.9,30.30,NW,325,4.0,4.0,95,0.00,,,0.02,Wunderground v.1.15,2013-04-10 23:59:00,
2013-04-10 17:04:00,50.2,48.8,30.30,NNW,329,5.0,8.0,95,0.00,,,0.02,Wunderground v.1.15,2013-04-11 00:04:00,
2013-04-10 17:10:00,49.5,48.1,30.30,NNW,333,6.0,10.0,95,0.00,,,0.02,Wunderground v.1.15,2013-04-11 00:10:00,
2013-04-10 17:16:00,48.9,47.5,30.30,North,350,9.0,10.0,95,0.00,,,0.02,Wunderground v.1.15,2013-04-11 00:16:00,
2013-04-10 17:23:00,48.8,47.7,30.30,NNW,346,10.0,11.0,96,0.00,,,0.02,Wunderground v.1.15,2013-04-11 00:23:00,
2013-04-10 17:28:00,48.8,47.7,30.30,North,355,10.0,11.0,96,0.00,,,0.02,Wunderground v.1.15,2013-04-11 00:28:00,
2013-04-10 17:33:00,48.6,47.5,30.30,North,350,10.0,12.0,96,0.00,,,0.02,Wunderground v.1.15,2013-04-11 00:33:00,
2013-04-10 17:39:00,48.5,47.7,30.30,North,355,11.0,12.0,97,0.00,,,0.02,Wunderground v.1.15,2013-04-11 00:39:00,
2013-04-10 17:44:00,48.2,47.1,30.30,North,350,11.0,14.0,96,0.00,,,0.02,Wunderground v.1.15,2013-04-11 00:44:00,
2013-04-10 17:50:00,48.5,47.7,30.30,North,355,12.0,15.0,97,0.00,,,0.02,Wunderground v.1.15,2013-04-11 00:50:00,
2013-04-10 17:55:00,48.3,47.5,30.30,North,5,12.0,15.0,97,0.00,,,0.02,Wunderground v.1.15,2013-04-11 00:55:00,
2013-04-10 18:00:00,48.1,47.0,30.30,NNW,346,12.0,12.0,96,0.00,,,0.02,Wunderground v.1.15,2013-04-11 01:00:00,
2013-04-10 18:07:00,48.4,47.6,30.30,North,355,12.0,15.0,97,0.00,,,0.02,Wunderground v.1.15,2013-04-11 01:07:00,
2013-04-10 18:13:00,48.1,47.0,30.30,North,349,11.0,12.0,96,0.00,,,0.02,Wunderground v.1.15,2013-04-11 01:13:00,
2013-04-10 18:18:00,48.1,47.0,30.30,NNW,348,11.0,13.0,96,0.00,,,0.02,Wunderground v.1.15,2013-04-11 01:18:00,
2013-04-10 18:23:00,48.1,47.0,30.30,North,355,11.0,12.0,96,0.00,,,0.02,Wunderground v.1.15,2013-04-11 01:23:00,
2013-04-10 18:28:00,48.1,46.7,30.30,North,5,11.0,12.0,95,0.00,,,0.02,Wunderground v.1.15,2013-04-11 01:28:00,
2013-04-10 18:34:00,48.5,47.1,30.30,North,360,10.0,12.0,95,0.00,,,0.02,Wunderground v.1.15,2013-04-11 01:34:00,
2013-04-10 18:40:00,48.5,47.1,30.30,North,360,10.0,10.0,95,0.00,,,0.02,Wunderground v.1.15,2013-04-11 01:40:00,
2013-04-10 18:45:00,48.4,47.0,30.30,North,355,10.0,11.0,95,0.00,,,0.02,Wunderground v.1.15,2013-04-11 01:45:00,
2013-04-10 18:50:00,48.3,46.9,30.30,North,355,10.0,10.0,95,0.00,,,0.02,Wunderground v.1.15,2013-04-11 01:50:00,
2013-04-10 18:57:00,48.3,46.9,30.30,North,351,9.0,12.0,95,0.00,,,0.02,Wunderground v.1.15,2013-04-11 01:57:00,
2013-04-10 19:02:00,48.2,46.8,30.30,North,355,10.0,10.0,95,0.00,,,0.02,Wunderground v.1.15,2013-04-11 02:02:00,
2013-04-10 19:08:00,48.1,46.7,30.30,North,355,10.0,12.0,95,0.00,,,0.02,Wunderground v.1.15,2013-04-11 02:08:00,
2013-04-10 19:13:00,48.2,46.8,30.30,North,355,10.0,13.0,95,0.00,,,0.02,Wunderground v.1.15,2013-04-11 02:13:00,
2013-04-10 19:18:00,48.2,46.8,30.30,North,351,10.0,13.0,95,0.00,,,0.02,Wunderground v.1.15,2013-04-11 02:18:00,
2013-04-10 19:24:00,48.1,46.5,30.30,North,350,11.0,12.0,94,0.00,,,0.02,Wunderground v.1.15,2013-04-11 02:24:00,
2013-04-10 19:30:00,48.0,46.4,30.30,North,355,10.0,10.0,94,0.00,,,0.02,Wunderground v.1.15,2013-04-11 02:30:00,
2013-04-10 19:36:00,47.8,46.2,30.30,North,360,10.0,13.0,94,0.00,,,0.02,Wunderground v.1.15,2013-04-11 02:36:00,
2013-04-10 19:42:00,47.9,46.0,30.30,NNE,30,10.0,11.0,93,0.00,,,0.02,Wunderground v.1.15,2013-04-11 02:42:00,
2013-04-10 19:47:00,47.9,46.0,30.30,North,360,9.0,11.0,93,0.00,,,0.02,Wunderground v.1.15,2013-04-11 02:47:00,
2013-04-10 19:52:00,47.8,45.9,30.30,NNE,19,8.0,11.0,93,0.00,,,0.02,Wunderground v.1.15,2013-04-11 02:52:00,
2013-04-10 19:58:00,47.8,45.9,30.30,North,355,6.0,11.0,93,0.00,,,0.02,Wunderground v.1.15,2013-04-11 02:58:00,
2013-04-10 20:03:00,47.8,45.9,30.30,North,350,7.0,11.0,93,0.00,,,0.02,Wunderground v.1.15,2013-04-11 03:03:00,
2013-04-10 20:09:00,47.7,45.8,30.30,North,360,9.0,13.0,93,0.00,,,0.02,Wunderground v.1.15,2013-04-11 03:09:00,
2013-04-10 20:15:00,47.7,45.8,30.31,North,360,8.0,9.0,93,0.00,,,0.02,Wunderground v.1.15,2013-04-11 03:15:00,
2013-04-10 20:20:00,47.7,45.8,30.31,North,355,8.0,8.0,93,0.00,,,0.02,Wunderground v.1.15,2013-04-11 03:20:00,
2013-04-10 20:26:00,47.7,45.8,30.31,North,355,5.0,9.0,93,0.00,,,0.02,Wunderground v.1.15,2013-04-11 03:26:00,
2013-04-10 20:32:00,47.7,45.8,30.32,North,355,6.0,9.0,93,0.00,,,0.02,Wunderground v.1.15,2013-04-11 03:32:00,
2013-04-10 20:38:00,47.8,46.2,30.32,North,355,8.0,12.0,94,0.00,,,0.02,Wunderground v.1.15,2013-04-11 03:38:00,
2013-04-10 20:43:00,47.8,46.2,30.32,NNW,346,9.0,17.0,94,0.00,,,0.02,Wunderground v.1.15,2013-04-11 03:43:00,
2013-04-10 20:48:00,47.6,46.0,30.32,North,355,9.0,17.0,94,0.00,,,0.02,Wunderground v.1.15,2013-04-11 03:48:00,
2013-04-10 20:54:00,47.4,45.8,30.32,NNE,14,9.0,11.0,94,0.00,,,0.02,Wunderground v.1.15,2013-04-11 03:54:00,
2013-04-10 20:59:00,47.3,45.4,30.32,North,355,9.0,9.0,93,0.00,,,0.02,Wunderground v.1.15,2013-04-11 03:59:00,
2013-04-10 21:00:00,47.3,45.4,30.32,North,355,9.0,9.0,93,0.00,,,0.02,Wunderground v.1.15,2013-04-11 04:00:00,
2013-04-10 21:01:00,47.2,45.3,30.32,North,355,8.0,10.0,93,0.00,,,0.02,Wunderground v.1.15,2013-04-11 04:01:00,
2013-04-10 21:03:00,47.2,45.3,30.32,North,360,8.0,10.0,93,0.00,,,0.02,Wunderground v.1.15,2013-04-11 04:03:00,
2013-04-10 21:05:00,47.3,45.4,30.32,North,350,9.0,11.0,93,0.00,,,0.02,Wunderground v.1.15,2013-04-11 04:05:00,
2013-04-10 21:11:00,47.3,45.4,30.33,North,355,8.0,8.0,93,0.00,,,0.02,Wunderground v.1.15,2013-04-11 04:11:00,
2013-04-10 21:17:00,47.2,45.3,30.33,North,360,6.0,8.0,93,0.00,,,0.02,Wunderground v.1.15,2013-04-11 04:17:00,
2013-04-10 21:23:00,47.2,45.3,30.33,North,355,4.0,7.0,93,0.00,,,0.02,Wunderground v.1.15,2013-04-11 04:23:00,
2013-04-10 21:28:00,47.2,45.3,30.33,North,355,6.0,9.0,93,0.00,,,0.02,Wunderground v.1.15,2013-04-11 04:28:00,
2013-04-10 21:33:00,47.2,45.0,30.33,North,5,9.0,14.0,92,0.00,,,0.02,Wunderground v.1.15,2013-04-11 04:33:00,
2013-04-10 21:38:00,47.3,45.1,30.34,North,355,9.0,14.0,92,0.00,,,0.02,Wunderground v.1.15,2013-04-11 04:38:00,
2013-04-10 21:43:00,47.2,45.0,30.34,NE,51,7.0,9.0,92,0.00,,,0.02,Wunderground v.1.15,2013-04-11 04:43:00,
2013-04-10 21:49:00,46.9,45.0,30.34,ENE,69,4.0,4.0,93,0.00,,,0.02,Wunderground v.1.15,2013-04-11 04:49:00,
2013-04-10 21:54:00,46.8,44.9,30.34,ENE,59,4.0,6.0,93,0.00,,,0.02,Wunderground v.1.15,2013-04-11 04:54:00,
2013-04-10 21:59:00,46.8,44.9,30.34,NE,56,4.0,4.0,93,0.00,,,0.02,Wunderground v.1.15,2013-04-11 04:59:00,
2013-04-10 22:05:00,46.6,44.4,30.34,ENE,57,3.0,4.0,92,0.00,,,0.02,Wunderground v.1.15,2013-04-11 05:05:00,
2013-04-10 22:12:00,46.5,44.3,30.34,ENE,57,3.0,4.0,92,0.00,,,0.02,Wunderground v.1.15,2013-04-11 05:12:00,
2013-04-10 22:17:00,46.4,44.5,30.34,ENE,57,2.0,5.0,93,0.00,,,0.02,Wunderground v.1.15,2013-04-11 05:17:00,
2013-04-10 22:22:00,46.4,44.5,30.34,ENE,59,3.0,4.0,93,0.00,,,0.02,Wunderground v.1.15,2013-04-11 05:22:00,
2013-04-10 22:27:00,46.4,44.5,30.34,ENE,61,3.0,4.0,93,0.00,,,0.02,Wunderground v.1.15,2013-04-11 05:27:00,
2013-04-10 22:34:00,46.3,44.4,30.34,ENE,61,3.0,4.0,93,0.00,,,0.02,Wunderground v.1.15,2013-04-11 05:34:00,
2013-04-10 22:39:00,46.3,44.4,30.34,ENE,61,2.0,4.0,93,0.00,,,0.02,Wunderground v.1.15,2013-04-11 05:39:00,
2013-04-10 22:44:00,46.3,44.4,30.34,ENE,60,2.0,3.0,93,0.00,,,0.02,Wunderground v.1.15,2013-04-11 05:44:00,
2013-04-10 22:49:00,46.2,44.3,30.34,ENE,60,2.0,2.0,93,0.00,,,0.02,Wunderground v.1.15,2013-04-11 05:49:00,
2013-04-10 22:54:00,46.2,44.3,30.34,ENE,60,2.0,2.0,93,0.00,,,0.02,Wunderground v.1.15,2013-04-11 05:54:00,
2013-04-10 22:59:00,46.1,43.9,30.34,ENE,60,2.0,2.0,92,0.00,,,0.02,Wunderground v.1.15,2013-04-11 05:59:00,
2013-04-10 23:04:00,46.0,44.1,30.35,ENE,60,2.0,2.0,93,0.00,,,0.02,Wunderground v.1.15,2013-04-11 06:04:00,
2013-04-10 23:10:00,46.3,44.4,30.35,North,355,3.0,6.0,93,0.00,,,0.02,Wunderground v.1.15,2013-04-11 06:10:00,
2013-04-10 23:16:00,46.3,44.4,30.35,NNE,21,4.0,6.0,93,0.00,,,0.02,Wunderground v.1.15,2013-04-11 06:16:00,
2013-04-10 23:21:00,46.4,44.5,30.35,NNE,26,3.0,3.0,93,0.00,,,0.02,Wunderground v.1.15,2013-04-11 06:21:00,
2013-04-10 23:28:00,46.5,44.6,30.35,NNE,26,3.0,5.0,93,0.00,,,0.02,Wunderground v.1.15,2013-04-11 06:28:00,
2013-04-10 23:33:00,46.6,44.7,30.35,North,360,4.0,5.0,93,0.00,,,0.02,Wunderground v.1.15,2013-04-11 06:33:00,
2013-04-10 23:38:00,46.5,44.6,30.35,North,9,3.0,5.0,93,0.00,,,0.02,Wunderground v.1.15,2013-04-11 06:38:00,
2013-04-10 23:43:00,46.4,44.5,30.35,NE,38,3.0,4.0,93,0.00,,,0.02,Wunderground v.1.15,2013-04-11 06:43:00,
2013-04-10 23:49:00,46.1,44.2,30.35,NE,40,3.0,4.0,93,0.00,,,0.02,Wunderground v.1.15,2013-04-11 06:49:00,
2013-04-10 23:55:00,46.1,44.2,30.35,NE,43,3.0,4.0,93,0.00,,,0.02,Wunderground v.1.15,2013-04-11 06:55:00,